Airport View

Enter AWOS ICAO identifier for current METAR.

ex. KFNL

KSHV 251225Z 00000KT 10SM BKN008 BKN013 OVC020 19/17 A3000

25 Sep 2020 12:53

Phone: 318-636-5767

Other Area AWOS: KDTN - KBAD - K3F3 - KASL

TAF KSHV 251140Z 2512/2612 00000KT 6SM BR BKN015 TEMPO 2512/2514 4SM BR BKN010 FM251400 VRB03KT 6SM BR BKN015 FM251600 15005KT P6SM BKN025 FM251800 16005KT P6SM SCT035 FM252200 VRB03KT P6SM SCT250 FM260900 VRB03KT P6SM BKN025